M I D A S
Marine Information and Data Acquisition System
Tripno 728 of the Zeeleeuw from 2004-06-03 06:30:24 to 2004-06-03 12:07:08
Back to CruiseResearch ActivitiesStationsMapUnderway DataData graphs

EquipmentUnitsComments
TimeDGPSUTC
LatitudeDGPSDM.mWGS84
LongitudeDGPSDM.mWGS84
SpeedMeteo Stationm/sRelative wind speed
DirectionMeteo StationdegRelative wind direction
TemperatureMeteo Stationdeg CelciusAir temperature
PressureMeteo StationPaAtmospheric pressure
HumidityMeteo Station%Relative humidity
Missing or incorrect values are displayed as -999
Metereological data collected by the RV Zeeleeuw from 2004-06-03 06:30:24 to 2004-06-03 12:07:08
Time Latitude Longitude Speed Direction Temperature Pressure Humidity
2004-06-03 06:31 51°13.638 2°55.941 5.8 215 13.5 102870 78
2004-06-03 06:32 51°13.675 2°55.81 4.6 228 13.5 102870 78
2004-06-03 06:33 51°13.69 2°55.754 6.6 321 13.5 102860 78
2004-06-03 06:34 51°13.699 2°55.768 4.3 324 13.5 102860 78
2004-06-03 06:35 51°13.698 2°55.745 7.7 19 13.5 102860 78
2004-06-03 06:36 51°13.778 2°55.676 9.3 26 13.4 102850 78
2004-06-03 06:37 51°13.898 2°55.596 9.9 39 13.4 102850 78
2004-06-03 06:38 51°14.033 2°55.51 9.6 25 13.4 102850 79
2004-06-03 06:39 51°14.169 2°55.388 9.2 23 13.4 102850 80
2004-06-03 06:40 51°14.296 2°55.192 8.8 35 13.4 102850 79
2004-06-03 06:41 51°14.427 2°54.955 9.7 51 13.4 102850 80
2004-06-03 06:42 51°14.47 2°54.635 7 83 13.4 102840 80
2004-06-03 06:43 51°14.427 2°54.412 5.2 115 13.4 102860 81
2004-06-03 06:44 51°14.391 2°54.284 5.7 117 13.3 102860 79
2004-06-03 06:45 51°14.37 2°54.187 4.7 115 13.3 102860 79
2004-06-03 06:46 51°14.352 2°54.108 5.2 114 13.4 102860 80
2004-06-03 06:47 51°14.333 2°54.017 4.9 109 13.4 102870 80
2004-06-03 06:48 51°14.243 2°53.77 5.2 80 13.4 102860 80
2004-06-03 06:49 51°14.121 2°53.472 4.7 70 13.4 102870 80
2004-06-03 06:50 51°13.991 2°53.151 5.2 59 13.3 102870 80
2004-06-03 06:51 51°13.868 2°52.916 3.9 126 13.3 102870 80
2004-06-03 06:52 51°13.829 2°52.818 5.8 120 13.3 102870 80
2004-06-03 06:53 51°13.808 2°52.781 5.7 121 13.3 102860 80
2004-06-03 06:54 51°13.785 2°52.726 5.3 124 13.4 102870 80
2004-06-03 06:55 51°13.766 2°52.721 4.9 133 13.4 102870 80
2004-06-03 06:56 51°13.747 2°52.709 6.1 142 13.4 102870 80
2004-06-03 06:57 51°13.726 2°52.687 5.6 136 13.4 102870 80
2004-06-03 06:58 51°13.702 2°52.652 4.8 130 13.4 102870 80
2004-06-03 06:59 51°13.673 2°52.59 4.4 120 13.4 102880 80
2004-06-03 07:00 51°13.641 2°52.509 3.7 130 13.4 102870 79
2004-06-03 07:01 51°13.607 2°52.428 4.6 130 13.5 102870 80
2004-06-03 07:02 51°13.574 2°52.349 6.1 121 13.5 102870 81
2004-06-03 07:03 51°13.545 2°52.278 5.9 117 13.5 102870 81
2004-06-03 07:04 51°13.523 2°52.215 5 119 13.4 102870 81
2004-06-03 07:05 51°13.501 2°52.156 5.8 108 13.4 102870 81
2004-06-03 07:06 51°13.476 2°52.098 5.4 96 13.4 102880 81
2004-06-03 07:07 51°13.454 2°52.047 6.7 96 13.3 102870 80
2004-06-03 07:08 51°13.429 2°51.995 5.7 104 13.4 102870 81
2004-06-03 07:09 51°13.406 2°51.946 6.3 99 13.5 102870 82
2004-06-03 07:10 51°13.382 2°51.897 6.1 106 13.4 102870 82
2004-06-03 07:11 51°13.357 2°51.849 6 100 13.3 102870 81
2004-06-03 07:12 51°13.333 2°51.8 6.6 98 13.3 102860 81
2004-06-03 07:13 51°13.311 2°51.754 6.7 104 13.2 102870 81
2004-06-03 07:14 51°13.288 2°51.704 6.6 98 13.2 102860 81
2004-06-03 07:15 51°13.267 2°51.657 6.7 99 13.3 102860 82
2004-06-03 07:16 51°13.245 2°51.611 6.1 101 13.3 102870 82
2004-06-03 07:17 51°13.223 2°51.564 6.1 102 13.3 102860 82
2004-06-03 07:18 51°13.202 2°51.517 5.6 99 13.3 102870 82
2004-06-03 07:19 51°13.182 2°51.468 7.6 87 13.3 102860 82
2004-06-03 07:20 51°13.125 2°51.244 6.8 69 13.2 102860 81
2004-06-03 07:21 51°13.01 2°50.904 8.5 60 13.2 102860 81
2004-06-03 07:22 51°12.888 2°50.553 6 71 13.2 102860 81
2004-06-03 07:23 51°12.771 2°50.197 8.2 62 13.2 102860 81
2004-06-03 07:24 51°12.65 2°49.842 8.1 62 13.2 102860 81
2004-06-03 07:25 51°12.537 2°49.481 7.2 59 13.2 102870 80
2004-06-03 07:26 51°12.421 2°49.114 8.2 61 13.2 102870 80
2004-06-03 07:27 51°12.3 2°48.753 6.5 55 13.2 102870 80
2004-06-03 07:28 51°12.181 2°48.389 6.2 67 13.2 102870 80
2004-06-03 07:29 51°12.06 2°48.026 6.6 69 13.2 102870 81
2004-06-03 07:30 51°11.943 2°47.659 6.9 57 13.2 102870 80
2004-06-03 07:31 51°11.815 2°47.271 7.2 58 13.2 102870 80
2004-06-03 07:32 51°11.694 2°46.902 6.4 58 13.2 102870 80
2004-06-03 07:33 51°11.575 2°46.541 6.9 65 13.2 102870 80
2004-06-03 07:34 51°11.462 2°46.176 7.4 51 13.2 102880 80
2004-06-03 07:35 51°11.346 2°45.813 8.5 51 13.2 102880 80
2004-06-03 07:36 51°11.234 2°45.447 8.4 53 13.2 102880 80
2004-06-03 07:37 51°11.126 2°45.081 9 58 13.2 102880 81
2004-06-03 07:38 51°11.008 2°44.727 9 55 13.2 102880 81
2004-06-03 07:39 51°10.932 2°44.343 7.7 55 13.2 102870 81
2004-06-03 07:40 51°10.85 2°43.969 9.2 50 13.2 102880 81
2004-06-03 07:41 51°10.762 2°43.583 8 64 13.2 102870 81
2004-06-03 07:42 51°10.685 2°43.203 8.7 61 13.2 102880 81
2004-06-03 07:43 51°10.606 2°42.825 8.4 58 13.2 102880 81
2004-06-03 07:44 51°10.52 2°42.447 8.7 51 13.2 102880 80
2004-06-03 07:45 51°10.439 2°42.066 8.3 59 13.2 102880 81
2004-06-03 07:46 51°10.35 2°41.686 8.9 58 13.2 102880 81
2004-06-03 07:47 51°10.27 2°41.304 8.6 61 13.2 102880 80
2004-06-03 07:48 51°10.184 2°40.926 7.5 58 13.2 102880 80
2004-06-03 07:49 51°10.102 2°40.546 8.6 58 13.2 102880 80
2004-06-03 07:50 51°10.02 2°40.168 7.7 52 13.2 102880 80
2004-06-03 07:51 51°9.937 2°39.791 8.1 65 13.2 102880 80
2004-06-03 07:52 51°9.855 2°39.413 8.1 65 13.2 102890 79
2004-06-03 07:53 51°9.817 2°39.029 11.3 47 13.2 102880 79
2004-06-03 07:54 51°9.85 2°38.628 10.2 45 13.2 102870 80
2004-06-03 07:55 51°9.88 2°38.24 11.4 49 13.2 102880 80
2004-06-03 07:56 51°9.91 2°37.83 10.3 46 13.2 102870 80
2004-06-03 07:57 51°9.821 2°37.465 6.5 60 13.1 102880 80
2004-06-03 07:58 51°9.662 2°37.148 5.6 60 13.2 102890 80
2004-06-03 07:59 51°9.498 2°36.821 5.8 70 13.2 102890 81
2004-06-03 08:00 51°9.391 2°36.453 9.9 57 13.1 102890 80
2004-06-03 08:01 51°9.394 2°36.066 11.6 38 13.1 102890 80
2004-06-03 08:02 51°9.511 2°35.725 12.1 29 13.1 102880 80
2004-06-03 08:03 51°9.682 2°35.461 14.1 20 13.2 102880 80
2004-06-03 08:04 51°9.866 2°35.253 12.9 15 13.3 102880 79
2004-06-03 08:05 51°10.076 2°35.225 13.5   13.3 102900 78
2004-06-03 08:06 51°10.28 2°35.307 13.3 353 13.3 102880 78
2004-06-03 08:07 51°10.462 2°35.453 13.1 346 13.3 102880 79
2004-06-03 08:08 51°10.632 2°35.637 12.6 351 13.3 102890 79
2004-06-03 08:09 51°10.802 2°35.823 12.5 346 13.4 102870 79
2004-06-03 08:10 51°10.978 2°36.014 12.9 351 13.4 102880 80
2004-06-03 08:11 51°11.145 2°36.2 12.2 348 13.4 102880 79
2004-06-03 08:12 51°11.33 2°36.404 12.7 349 13.4 102880 79
2004-06-03 08:13 51°11.496 2°36.588 12.9 347 13.4 102880 79
2004-06-03 08:14 51°11.668 2°36.778 12 341 13.4 102880 79
2004-06-03 08:15 51°11.835 2°36.962 13.5 349 13.5 102880 79
2004-06-03 08:16 51°12.013 2°37.145 12.8 350 13.4 102880 78
2004-06-03 08:17 51°12.188 2°37.313 12.6 354 13.5 102880 79
2004-06-03 08:18 51°12.364 2°37.481 12.9 348 13.4 102870 78
2004-06-03 08:19 51°12.545 2°37.656 12.9 348 13.5 102880 79
2004-06-03 08:20 51°12.721 2°37.825 12.4 347 13.5 102880 79
2004-06-03 08:21 51°12.905 2°38.001 11.7 350 13.5 102880 79
2004-06-03 08:22 51°13.084 2°38.174 11.7 351 13.4 102870 79
2004-06-03 08:23 51°13.262 2°38.346 12.2 349 13.4 102870 79
2004-06-03 08:24 51°13.452 2°38.529 13.2 358 13.4 102880 79
2004-06-03 08:25 51°13.642 2°38.714 12.3 347 13.4 102870 79
2004-06-03 08:27 51°13.839 2°38.905 13.6 347 13.4 102870 79
2004-06-03 08:28 51°14.015 2°39.077 12.4 352 13.4 102870 79
2004-06-03 08:29 51°14.215 2°39.159 13.7 9 13.4 102880 79
2004-06-03 08:30 51°14.41 2°39.013 12.4 22 13.4 102880 79
2004-06-03 08:31 51°14.51 2°38.699 11.3 43 13.3 102880 79
2004-06-03 08:32 51°14.477 2°38.308 7.9 50 13.2 102880 79
2004-06-03 08:33 51°14.391 2°37.935 8.9 53 13.2 102880 80
2004-06-03 08:34 51°14.304 2°37.555 8.8 50 13.1 102880 80
2004-06-03 08:35 51°14.219 2°37.166 9.7 51 13.1 102890 81
2004-06-03 08:36 51°14.139 2°36.784 9.7 57 13.1 102880 82
2004-06-03 08:37 51°14.063 2°36.405 9.5 57 13 102880 81
2004-06-03 08:38 51°13.979 2°36.035 7.6 68 13.1 102880 81
2004-06-03 08:39 51°13.818 2°35.708 7.1 61 13.1 102900 81
2004-06-03 08:40 51°13.646 2°35.368 7.7 62 13.1 102890 81
2004-06-03 08:41 51°13.494 2°35.059 6.3 73 13.1 102890 81
2004-06-03 08:42 51°13.341 2°34.762 7.4 63 13.1 102900 81
2004-06-03 08:43 51°13.181 2°34.449 6.9 67 13.1 102900 80
2004-06-03 08:44 51°13.014 2°34.127 6.5 54 13.1 102900 81
2004-06-03 08:45 51°12.843 2°33.789 6.1 58 13.1 102890 81
2004-06-03 08:46 51°12.685 2°33.481 6.9 62 13.1 102900 80
2004-06-03 08:47 51°12.575 2°33.145 8.5 47 13.1 102890 80
2004-06-03 08:48 51°12.462 2°32.753 8.3 46 13.1 102890 80
2004-06-03 08:49 51°12.359 2°32.384 9.1 56 13.1 102890 80
2004-06-03 08:50 51°12.258 2°32.004 7.5 50 13.1 102890 80
2004-06-03 08:51 51°12.162 2°31.643 8.9 43 13 102890 78
2004-06-03 08:52 51°12.062 2°31.219 7.9 49 13.1 102890 78
2004-06-03 08:53 51°11.968 2°30.817 9.6 50 13.1 102890 79
2004-06-03 08:54 51°11.85 2°30.457 8.5 49 13.1 102890 79
2004-06-03 08:55 51°11.722 2°30.106 7.8 52 13.1 102900 80
2004-06-03 08:56 51°11.598 2°29.757 8.5 44 13.1 102890 79
2004-06-03 08:57 51°11.547 2°29.329 9.6 37 13.1 102870 79
2004-06-03 08:58 51°11.517 2°28.922 9.9 32 13.1 102880 79
2004-06-03 08:59 51°11.477 2°28.521 8.2 39 13.1 102870 80
2004-06-03 09:00 51°11.355 2°28.16 7.5 47 13.1 102890 81
2004-06-03 09:01 51°11.207 2°27.819 6.7 49 13 102880 80
2004-06-03 09:02 51°11.062 2°27.48 7.7 49 13 102880 81
2004-06-03 09:03 51°10.926 2°27.132 8 42 13 102880 80
2004-06-03 09:04 51°10.823 2°26.763 8.7 48 13.1 102870 81
2004-06-03 09:05 51°10.721 2°26.395 8.1 41 13 102880 81
2004-06-03 09:06 51°10.625 2°26.022 8.6 47 13 102880 81
2004-06-03 09:07 51°10.572 2°25.639 10.3 34 13 102880 81
2004-06-03 09:08 51°10.675 2°25.317 12.1 21 13 102880 81
2004-06-03 09:09 51°10.883 2°25.221 12.3 2 13.1 102880 81
2004-06-03 09:10 51°11.106 2°25.206 12.1 2 13.2 102890 81
2004-06-03 09:11 51°11.324 2°25.218 12.4 357 13.1 102870 81
2004-06-03 09:12 51°11.536 2°25.282 11.7 356 13.1 102870 80
2004-06-03 09:13 51°11.746 2°25.351 11.8 354 13.2 102880 81
2004-06-03 09:14 51°11.953 2°25.427 12 351 13.2 102870 81
2004-06-03 09:15 51°12.159 2°25.5 12.6 354 13.3 102870 81
2004-06-03 09:16 51°12.363 2°25.576 12.2 355 13.3 102870 81
2004-06-03 09:17 51°12.566 2°25.658 11.4 351 13.3 102870 81
2004-06-03 09:18 51°12.76 2°25.769 11.8 343 13.3 102870 81
2004-06-03 09:19 51°12.908 2°25.986 11.4 341 13.3 102860 81
2004-06-03 09:20 51°13.053 2°26.22 10.5 340 13.2 102870 81
2004-06-03 09:21 51°13.201 2°26.461 10.8 342 13.3 102870 82
2004-06-03 09:22 51°13.344 2°26.7 10.9 340 13.3 102870 82
2004-06-03 09:23 51°13.487 2°26.942 10.1 339 13.3 102870 82
2004-06-03 09:24 51°13.628 2°27.186 10.5 340 13.2 102870 81
2004-06-03 09:25 51°13.77 2°27.433 10.7 335 13.2 102870 81
2004-06-03 09:26 51°13.913 2°27.679 11.2 341 13.2 102870 81
2004-06-03 09:27 51°14.054 2°27.924 9.9 341 13.3 102870 81
2004-06-03 09:28 51°14.196 2°28.173 11.6 336 13.3 102870 81
2004-06-03 09:29 51°14.339 2°28.422 10.9 343 13.3 102870 81
2004-06-03 09:30 51°14.479 2°28.667 11 347 13.3 102870 81
2004-06-03 09:31 51°14.627 2°28.92 11.9 345 13.3 102870 81
2004-06-03 09:32 51°14.778 2°29.162 11.5 343 13.3 102860 82
2004-06-03 09:33 51°14.935 2°29.399 11.7 347 13.3 102870 82
2004-06-03 09:34 51°15.091 2°29.636 10.4 346 13.3 102870 82
2004-06-03 09:35 51°15.249 2°29.874 11.5 340 13.4 102860 82
2004-06-03 09:36 51°15.407 2°30.111 11.2 343 13.4 102860 82
2004-06-03 09:37 51°15.567 2°30.35 11.1 341 13.4 102870 82
2004-06-03 09:38 51°15.728 2°30.588 10.9 344 13.5 102870 82
2004-06-03 09:39 51°15.89 2°30.83 11.1 344 13.5 102860 81
2004-06-03 09:40 51°16.051 2°31.072 11 343 13.5 102860 81
2004-06-03 09:41 51°16.213 2°31.315 10.9 350 13.5 102860 81
2004-06-03 09:42 51°16.37 2°31.562 10.8 349 13.5 102860 80
2004-06-03 09:43 51°16.527 2°31.806 10.8 343 13.5 102870 80
2004-06-03 09:44 51°16.685 2°32.05 10.4 350 13.6 102870 80
2004-06-03 09:45 51°16.842 2°32.295 11 342 13.6 102870 80
2004-06-03 09:46 51°16.999 2°32.539 10.6 342 13.5 102860 80
2004-06-03 09:47 51°17.157 2°32.784 9.9 346 13.5 102860 80
2004-06-03 09:48 51°17.312 2°33.026 9.9 343 13.5 102860 80
2004-06-03 09:49 51°17.473 2°33.278 10 345 13.5 102860 80
2004-06-03 09:50 51°17.632 2°33.524 10.6 345 13.5 102860 80
2004-06-03 09:51 51°17.79 2°33.767 10.5 347 13.5 102860 81
2004-06-03 09:52 51°17.951 2°34.016 10.9 342 13.5 102860 80
2004-06-03 09:53 51°18.122 2°34.259 10.3 353 13.4 102860 80
2004-06-03 09:54 51°18.3 2°34.476 11.1 349 13.5 102860 80
2004-06-03 09:55 51°18.478 2°34.696 10.9 350 13.5 102860 80
2004-06-03 09:56 51°18.662 2°34.905 10 351 13.5 102860 80
2004-06-03 09:57 51°18.849 2°35.097 9.9 348 13.5 102860 80
2004-06-03 09:58 51°19.038 2°35.274 10.6 351 13.5 102860 80
2004-06-03 09:59 51°19.23 2°35.453 11.2 354 13.5 102860 79
2004-06-03 10:00 51°19.424 2°35.631 11.5 354 13.5 102860 80
2004-06-03 10:01 51°19.629 2°35.779 10.2 357 13.5 102860 79
2004-06-03 10:02 51°19.83 2°35.91 11.3 351 13.5 102860 80
2004-06-03 10:03 51°20.031 2°36.068 10.9 352 13.5 102850 80
2004-06-03 10:04 51°20.203 2°36.295 9.6 345 13.4 102850 80
2004-06-03 10:05 51°20.287 2°36.621 9.3 340 13.4 102850 79
2004-06-03 10:06 51°20.351 2°36.971 8.4 336 13.4 102850 79
2004-06-03 10:07 51°20.398 2°37.33 8.3 340 13.5 102860 79
2004-06-03 10:08 51°20.422 2°37.699 8 340 13.5 102860 80
2004-06-03 10:09 51°20.415 2°38.072 8.7 334 13.5 102860 80
2004-06-03 10:10 51°20.402 2°38.445 8.4 340 13.5 102860 79
2004-06-03 10:11 51°20.393 2°38.818 7.7 334 13.6 102860 79
2004-06-03 10:12 51°20.385 2°39.166 7.5 331 13.6 102850 79
2004-06-03 10:13 51°20.378 2°39.568 8.6 339 13.5 102860 79
2004-06-03 10:14 51°20.372 2°39.94 8.3 333 13.6 102860 79
2004-06-03 10:15 51°20.368 2°40.313 8.6 327 13.6 102860 79
2004-06-03 10:16 51°20.366 2°40.688 7.4 333 13.5 102850 78
2004-06-03 10:17 51°20.367 2°41.067 8.1 329 13.5 102850 78
2004-06-03 10:18 51°20.365 2°41.448 8.9 329 13.5 102850 78
2004-06-03 10:19 51°20.363 2°41.83 7.6 335 13.5 102860 78
2004-06-03 10:20 51°20.36 2°42.216 8.1 331 13.5 102860 78
2004-06-03 10:21 51°20.357 2°42.594 8.1 336 13.6 102860 78
2004-06-03 10:22 51°20.355 2°42.984 8.9 334 13.6 102850 78
2004-06-03 10:23 51°20.353 2°43.363 7.7 336 13.6 102850 78
2004-06-03 10:24 51°20.352 2°43.742 8.5 331 13.6 102850 78
2004-06-03 10:25 51°20.353 2°44.117 7.8 333 13.7 102840 78
2004-06-03 10:26 51°20.356 2°44.492 8.4 336 13.7 102850 78
2004-06-03 10:27 51°20.361 2°44.868 8.5 333 13.7 102840 79
2004-06-03 10:28 51°20.349 2°45.246 7.5 329 13.7 102840 79
2004-06-03 10:29 51°20.294 2°45.614 7 326 13.7 102840 79
2004-06-03 10:30 51°20.239 2°45.981 7.4 329 13.6 102840 79
2004-06-03 10:31 51°20.184 2°46.362 8 332 13.7 102840 79
2004-06-03 10:32 51°20.142 2°46.75 7.9 328 13.6 102840 77
2004-06-03 10:33 51°20.097 2°47.142 7.5 323 13.6 102840 77
2004-06-03 10:34 51°20.037 2°47.511 7.2 327 13.7 102840 76
2004-06-03 10:35 51°19.966 2°47.883 7 333 13.6 102850 76
2004-06-03 10:36 51°19.847 2°48.221 5.5 322 13.7 102850 76
2004-06-03 10:37 51°19.693 2°48.552 4.6 321 13.8 102850 76
2004-06-03 10:38 51°19.55 2°48.849 6.4 332 13.8 102850 76
2004-06-03 10:39 51°19.412 2°49.157 5.5 329 13.8 102860 76
2004-06-03 10:40 51°19.27 2°49.471 6.4 316 13.9 102860 75
2004-06-03 10:41 51°19.122 2°49.775 4.4 321 13.9 102860 75
2004-06-03 10:42 51°18.96 2°50.072 5.7 323 13.9 102850 76
2004-06-03 10:43 51°18.805 2°50.37 5.2 320 13.9 102850 75
2004-06-03 10:44 51°18.65 2°50.665 5.9 327 13.9 102850 75
2004-06-03 10:45 51°18.493 2°50.959 5.5 319 13.9 102850 75
2004-06-03 10:46 51°18.328 2°51.229 6.3 326 13.9 102850 76
2004-06-03 10:47 51°18.161 2°51.505 5.5 322 13.9 102850 75
2004-06-03 10:48 51°17.974 2°51.736 3.4 330 13.9 102850 75
2004-06-03 10:49 51°17.778 2°51.955 3.5 335 14 102860 75
2004-06-03 10:50 51°17.582 2°52.161 3.3 335 14.1 102860 75
2004-06-03 10:51 51°17.378 2°52.347 5 315 14.1 102850 76
2004-06-03 10:52 51°17.179 2°52.543 4.3 314 14.2 102850 74
2004-06-03 10:53 51°16.977 2°52.735 5.1 316 14.1 102850 75
2004-06-03 10:54 51°16.781 2°52.925 4.5 320 14.2 102850 75
2004-06-03 10:55 51°16.588 2°53.115 3.9 226 14.2 102850 75
2004-06-03 10:56 51°16.384 2°53.322 4.7 318 14.2 102840 75
2004-06-03 10:57 51°16.187 2°53.52 5 319 14.2 102840 75
2004-06-03 10:58 51°15.981 2°53.701 4.4 314 14.2 102850 75
2004-06-03 10:59 51°15.773 2°53.826 2.9 334 14.2 102850 75
2004-06-03 11:00 51°15.556 2°53.888 1.9 360 14.2 102850 75
2004-06-03 11:01 51°15.333 2°53.928 2.2 341 14.3 102850 75
2004-06-03 11:02 51°15.106 2°53.951 2.7 360 14.4 102850 75
2004-06-03 11:03 51°14.884 2°53.963 2.3 14 14.5 102850 75
2004-06-03 11:04 51°14.662 2°53.975 1.5 13 14.6 102850 75
2004-06-03 11:05 51°14.532 2°54.021 1.7 256 14.6 102840 74
2004-06-03 11:06 51°14.489 2°54.069 4.7 161 14.5 102840 74
2004-06-03 11:07 51°14.492 2°54.097 4.3 138 14.3 102840 74
2004-06-03 11:08 51°14.499 2°54.122 5.2 129 14.2 102840 75
2004-06-03 11:09 51°14.508 2°54.145 5.2 123 14.1 102830 75
2004-06-03 11:10 51°14.519 2°54.172 4.6 122 13.9 102830 75
2004-06-03 11:11 51°14.531 2°54.202 4 106 13.9 102830 76
2004-06-03 11:12 51°14.544 2°54.235 4.8 107 14 102830 76
2004-06-03 11:14 51°14.558 2°54.272 4.6 112 13.9 102830 76
2004-06-03 11:15 51°14.571 2°54.31 5.4 103 13.9 102830 76
2004-06-03 11:16 51°14.584 2°54.349 4.6 108 13.9 102830 78
2004-06-03 11:17 51°14.597 2°54.389 5 103 14 102830 77
2004-06-03 11:18 51°14.611 2°54.434 4.7 104 13.8 102830 76
2004-06-03 11:19 51°14.623 2°54.477 5.2 99 13.9 102820 77
2004-06-03 11:20 51°14.635 2°54.521 4.5 101 13.7 102820 76
2004-06-03 11:21 51°14.649 2°54.558 4.9 94 13.7 102820 77
2004-06-03 11:22 51°14.631 2°54.386 5.3 57 13.8 102820 76
2004-06-03 11:23 51°14.554 2°54.225 3.2 112 13.7 102820 78
2004-06-03 11:24 51°14.509 2°54.193 3.3 144 13.8 102820 79
2004-06-03 11:25 51°14.486 2°54.192 3.3 148 13.8 102830 78
2004-06-03 11:26 51°14.48 2°54.195 4 131 13.7 102820 77
2004-06-03 11:27 51°14.483 2°54.202 4.3 118 13.6 102830 76
2004-06-03 11:28 51°14.494 2°54.216 4.4 112 13.7 102820 76
2004-06-03 11:29 51°14.51 2°54.246 4.4 98 13.7 102820 76
2004-06-03 11:30 51°14.521 2°54.321 5.3 122 13.8 102820 77
2004-06-03 11:31 51°14.532 2°54.374 4.5 124 13.8 102820 76
2004-06-03 11:32 51°14.538 2°54.369 4.9 87 13.7 102820 76
2004-06-03 11:33 51°14.55 2°54.346 4.2 91 13.7 102820 76
2004-06-03 11:34 51°14.567 2°54.365 5 81 13.7 102830 77
2004-06-03 11:35 51°14.583 2°54.388 6.1 83 13.7 102820 77
2004-06-03 11:36 51°14.6 2°54.417 4.4 79 13.5 102820 76
2004-06-03 11:37 51°14.617 2°54.448 3.9 81 13.6 102830 77
2004-06-03 11:38 51°14.632 2°54.481 4.7 77 13.6 102830 77
2004-06-03 11:39 51°14.646 2°54.515 5 81 13.6 102830 77
2004-06-03 11:40 51°14.66 2°54.553 4.9 80 13.5 102820 78
2004-06-03 11:41 51°14.673 2°54.591 4.7 94 13.5 102830 77
2004-06-03 11:42 51°14.684 2°54.63 4.3 107 13.5 102820 77
2004-06-03 11:43 51°14.696 2°54.669 4.9 93 13.6 102830 77
2004-06-03 11:44 51°14.707 2°54.707 4.4 124 13.7 102820 78
2004-06-03 11:45 51°14.719 2°54.748 4.9 110 13.8 102820 77
2004-06-03 11:46 51°14.727 2°54.763 5 94 13.8 102820 77
2004-06-03 11:47 51°14.697 2°54.547 6.4 50 13.7 102820 76
2004-06-03 11:48 51°14.622 2°54.28 6.9 50 13.6 102820 77
2004-06-03 11:49 51°14.517 2°54.028 6.1 60 13.5 102820 76
2004-06-03 11:50 51°14.409 2°53.783 5.4 50 13.5 102830 76
2004-06-03 11:51 51°14.302 2°53.533 6.7 60 13.5 102830 77
2004-06-03 11:52 51°14.196 2°53.284 6.6 51 13.5 102830 77
2004-06-03 11:53 51°14.091 2°53.034 5.5 49 13.4 102840 76
2004-06-03 11:54 51°13.983 2°52.784 6.7 44 13.5 102830 77
2004-06-03 11:55 51°13.885 2°52.524 6.4 48 13.5 102830 76
2004-06-03 11:56 51°13.821 2°52.328 4.3 70 13.5 102840 76
2004-06-03 11:57 51°13.832 2°52.235 4.9 67 13.5 102840 76
2004-06-03 11:58 51°13.821 2°52.154 1.5 149 13.5 102840 75
2004-06-03 11:59 51°13.765 2°52.287 7.3 331 13.6 102830 75
2004-06-03 12:00 51°13.848 2°52.568 9.1 340 13.7 102820 74
2004-06-03 12:01 51°13.969 2°52.929 10.6 336 13.9 102820 74
2004-06-03 12:02 51°14.085 2°53.291 9.9 340 14 102820 74
2004-06-03 12:03 51°14.187 2°53.66 9.7 342 14 102820 73
2004-06-03 12:04 51°14.265 2°54.035 9 341 14.1 102820 73
2004-06-03 12:05 51°14.355 2°54.467 9.9 336 14.1 102820 72
2004-06-03 12:06 51°14.402 2°54.855 6 322 14.1 102820 73